createdAt,value
2022-11-23T00:01:39.690Z,24.63
2022-11-23T00:04:11.323Z,24.40
2022-11-23T00:06:39.933Z,24.83
2022-11-23T00:09:09.466Z,24.43
2022-11-23T00:11:39.511Z,24.00
2022-11-23T00:14:08.103Z,23.47
2022-11-23T00:16:36.408Z,24.13
2022-11-23T00:19:05.005Z,24.53
2022-11-23T00:21:34.392Z,24.70
2022-11-23T00:24:02.788Z,25.23
2022-11-23T00:26:31.641Z,23.63
2022-11-23T00:29:03.517Z,24.17
2022-11-23T00:31:31.907Z,24.70
2022-11-23T00:34:00.424Z,24.27
2022-11-23T00:36:29.828Z,23.73
2022-11-23T00:39:01.684Z,23.77
2022-11-23T00:41:29.983Z,24.57
2022-11-23T00:43:58.324Z,22.23
2022-11-23T00:46:29.419Z,24.80
2022-11-23T00:48:58.835Z,24.10
2022-11-23T00:51:29.652Z,25.73
2022-11-23T00:53:59.613Z,24.17
2022-11-23T00:56:29.457Z,24.37
2022-11-23T00:59:00.725Z,23.57
2022-11-23T01:01:34.727Z,24.20
2022-11-23T01:04:08.941Z,24.33
2022-11-23T01:06:40.596Z,24.90
2022-11-23T01:09:17.719Z,23.97
2022-11-23T01:11:46.870Z,25.20
2022-11-23T01:14:17.230Z,24.23
2022-11-23T01:16:47.061Z,24.73
2022-11-23T01:19:19.603Z,24.33
2022-11-23T01:21:51.278Z,24.10
2022-11-23T01:24:22.778Z,24.67
2022-11-23T01:26:53.295Z,24.23
2022-11-23T01:29:23.612Z,23.97
2022-11-23T01:31:53.566Z,23.80
2022-11-23T01:34:23.098Z,23.57
2022-11-23T01:36:51.993Z,24.10
2022-11-23T01:39:20.364Z,24.00
2022-11-23T01:41:48.701Z,23.27
2022-11-23T01:44:28.628Z,24.90
2022-11-23T01:47:00.765Z,24.47
2022-11-23T01:49:34.574Z,23.53
2022-11-23T01:52:11.196Z,23.50
2022-11-23T01:54:46.371Z,22.67
2022-11-23T01:57:22.365Z,23.17
2022-11-23T01:59:51.922Z,22.93
2022-11-23T02:02:21.746Z,24.00
2022-11-23T02:04:58.102Z,23.97
2022-11-23T02:07:27.306Z,22.30
2022-11-23T02:09:55.947Z,22.73
2022-11-23T02:12:24.342Z,22.67
2022-11-23T02:14:53.162Z,23.13
2022-11-23T02:17:23.050Z,22.43
2022-11-23T02:20:05.652Z,23.50
2022-11-23T02:22:44.891Z,22.33
2022-11-23T02:25:29.167Z,21.60
2022-11-23T02:28:01.348Z,22.43
2022-11-23T02:30:32.669Z,22.87
2022-11-23T02:33:01.024Z,21.70
2022-11-23T02:35:29.380Z,21.90
2022-11-23T02:37:57.825Z,23.90
2022-11-23T02:40:32.314Z,23.00
2022-11-23T02:43:02.410Z,21.70
2022-11-23T02:45:41.686Z,21.27
2022-11-23T02:48:10.023Z,24.03
2022-11-23T02:50:40.275Z,22.27
2022-11-23T02:53:09.174Z,23.87
2022-11-23T02:55:37.658Z,22.80
2022-11-23T02:58:08.392Z,22.73
2022-11-23T03:00:37.641Z,23.07
2022-11-23T03:03:06.912Z,23.20
2022-11-23T03:05:35.609Z,23.30
2022-11-23T03:08:07.650Z,22.43
2022-11-23T03:10:36.626Z,21.87
2022-11-23T03:13:06.412Z,23.03
2022-11-23T03:15:37.431Z,22.73
2022-11-23T03:18:07.051Z,22.33
2022-11-23T03:20:36.494Z,22.67
2022-11-23T03:23:06.053Z,21.87
2022-11-23T03:25:34.687Z,22.23
2022-11-23T03:28:06.697Z,22.93
2022-11-23T03:30:35.698Z,22.43
2022-11-23T03:33:07.295Z,22.07
2022-11-23T03:35:38.475Z,22.00
2022-11-23T03:38:25.889Z,22.43
2022-11-23T03:40:55.111Z,22.87
2022-11-23T03:43:47.652Z,21.90
2022-11-23T03:46:16.002Z,22.50
2022-11-23T03:48:44.242Z,23.00
2022-11-23T03:51:12.549Z,22.30
2022-11-23T03:53:41.207Z,21.73
2022-11-23T03:56:10.123Z,21.60
2022-11-23T03:58:43.028Z,22.70
2022-11-23T04:01:15.992Z,21.80
2022-11-23T04:03:46.853Z,20.27
2022-11-23T04:06:23.014Z,21.60
2022-11-23T04:09:02.481Z,19.50
2022-11-23T04:12:00.156Z,20.83
2022-11-23T04:14:28.652Z,20.93
2022-11-23T04:16:58.545Z,18.83
2022-11-23T04:19:27.002Z,18.83
2022-11-23T04:21:55.396Z,21.10
2022-11-23T04:24:24.225Z,20.23
2022-11-23T04:26:55.400Z,20.30
2022-11-23T04:29:23.903Z,20.93
2022-11-23T04:31:55.180Z,19.43
2022-11-23T04:34:25.301Z,19.13
2022-11-23T04:36:55.174Z,19.33
2022-11-23T04:39:30.756Z,20.43
2022-11-23T04:42:13.754Z,19.60
2022-11-23T04:44:48.614Z,19.43
2022-11-23T04:47:18.567Z,20.37
2022-11-23T04:49:50.505Z,19.57
2022-11-23T04:52:20.652Z,20.00
2022-11-23T04:54:51.721Z,20.27
2022-11-23T04:57:20.065Z,18.43
2022-11-23T04:59:50.404Z,18.93
2022-11-23T05:02:18.734Z,18.63
2022-11-23T05:04:51.596Z,17.93
2022-11-23T05:07:21.197Z,19.23
2022-11-23T05:09:57.291Z,19.70
2022-11-23T05:12:25.767Z,18.70
2022-11-23T05:14:54.049Z,19.20
2022-11-23T05:17:27.607Z,19.60
2022-11-23T05:19:58.334Z,18.90
2022-11-23T05:22:27.509Z,18.90
2022-11-23T05:24:56.019Z,19.47
2022-11-23T05:27:26.426Z,19.37
2022-11-23T05:29:54.846Z,19.27
2022-11-23T05:32:23.498Z,20.17
2022-11-23T05:34:51.928Z,19.83
2022-11-23T05:37:22.092Z,18.77
2022-11-23T05:39:59.770Z,18.63
2022-11-23T05:42:28.196Z,20.20
2022-11-23T05:45:00.494Z,19.20
2022-11-23T05:47:37.188Z,18.77
2022-11-23T05:50:10.443Z,18.77
2022-11-23T05:52:44.622Z,19.03
2022-11-23T05:55:13.259Z,21.03
2022-11-23T05:57:41.588Z,20.53
2022-11-23T06:00:11.564Z,20.83
2022-11-23T06:02:47.463Z,20.20
2022-11-23T06:05:16.014Z,19.90
2022-11-23T06:07:54.233Z,18.93
2022-11-23T06:10:27.966Z,20.13
2022-11-23T06:13:04.664Z,19.23
2022-11-23T06:15:34.105Z,19.57
2022-11-23T06:18:04.431Z,19.73
2022-11-23T06:20:41.185Z,19.17
2022-11-23T06:23:10.842Z,19.07
2022-11-23T06:25:39.534Z,18.50
2022-11-23T06:28:22.193Z,17.63
2022-11-23T06:30:51.719Z,18.10
2022-11-23T06:33:20.143Z,18.90
2022-11-23T06:35:55.573Z,17.67
2022-11-23T06:38:27.529Z,17.93
2022-11-23T06:41:04.276Z,17.57
2022-11-23T06:43:34.150Z,18.37
2022-11-23T06:46:06.772Z,17.37
2022-11-23T06:48:38.527Z,17.47
2022-11-23T06:51:08.081Z,18.30
2022-11-23T06:53:40.131Z,18.23
2022-11-23T06:56:10.577Z,16.90
2022-11-23T06:58:39.083Z,17.37
2022-11-23T07:01:13.875Z,18.60
2022-11-23T07:03:53.048Z,17.60
2022-11-23T07:06:28.955Z,18.43
2022-11-23T07:09:02.837Z,17.67
2022-11-23T07:11:46.780Z,18.33
2022-11-23T07:14:15.241Z,17.87
2022-11-23T07:16:48.355Z,18.27
2022-11-23T07:19:16.744Z,17.10
2022-11-23T07:21:46.847Z,18.23
2022-11-23T07:24:16.736Z,17.23
2022-11-23T07:26:45.035Z,17.60
2022-11-23T07:29:13.703Z,17.93
2022-11-23T07:31:42.188Z,17.93
2022-11-23T07:34:11.076Z,17.83
2022-11-23T07:36:39.636Z,17.10
2022-11-23T07:39:08.258Z,16.43
2022-11-23T07:41:38.680Z,17.50
2022-11-23T07:44:12.721Z,17.17
2022-11-23T07:46:41.049Z,17.30
2022-11-23T07:49:09.446Z,16.47
2022-11-23T07:51:37.675Z,18.00
2022-11-23T07:54:06.143Z,16.43
2022-11-23T07:56:34.414Z,15.83
2022-11-23T07:59:04.364Z,16.40
2022-11-23T08:01:32.721Z,16.23
2022-11-23T08:04:01.036Z,15.90
2022-11-23T08:06:30.170Z,16.37
2022-11-23T08:08:59.365Z,16.70
2022-11-23T08:11:27.724Z,15.77
2022-11-23T08:13:56.064Z,15.77
2022-11-23T08:16:25.647Z,14.97
2022-11-23T08:18:54.076Z,15.00
2022-11-23T08:21:22.398Z,14.60
2022-11-23T08:23:50.652Z,15.00
2022-11-23T08:26:19.028Z,13.70
2022-11-23T08:28:47.571Z,14.93
2022-11-23T08:31:15.938Z,15.23
2022-11-23T08:33:45.749Z,14.67
2022-11-23T08:36:14.309Z,14.90
2022-11-23T08:38:42.748Z,13.80
2022-11-23T08:41:11.301Z,14.23
2022-11-23T08:43:39.730Z,13.90
2022-11-23T08:46:11.094Z,12.93
2022-11-23T08:48:39.797Z,12.37
2022-11-23T08:51:10.640Z,11.77
2022-11-23T08:53:39.417Z,12.37
2022-11-23T08:56:09.640Z,12.07
2022-11-23T08:58:37.925Z,11.83
2022-11-23T09:01:10.115Z,11.10
2022-11-23T09:03:38.463Z,11.30
2022-11-23T09:06:08.893Z,11.83
2022-11-23T09:08:37.794Z,12.27
2022-11-23T09:11:11.209Z,11.90
2022-11-23T09:13:40.195Z,11.40
2022-11-23T09:16:09.493Z,11.40
2022-11-23T09:18:38.092Z,12.33
2022-11-23T09:21:07.595Z,11.17
2022-11-23T09:23:37.389Z,12.30
2022-11-23T09:26:06.848Z,12.13
2022-11-23T09:28:36.473Z,10.87
2022-11-23T09:31:07.451Z,11.17
2022-11-23T09:33:35.775Z,10.73
2022-11-23T09:36:05.978Z,10.43
2022-11-23T09:38:55.681Z,10.87
2022-11-23T09:41:56.888Z,10.37
2022-11-23T09:44:43.682Z,10.30
2022-11-23T09:47:40.186Z,10.77
2022-11-23T09:50:18.881Z,10.33
2022-11-23T09:52:50.960Z,9.37
2022-11-23T09:55:35.004Z,8.83
2022-11-23T09:58:07.984Z,9.60
2022-11-23T10:00:42.196Z,9.33
2022-11-23T10:03:16.696Z,8.27
2022-11-23T10:06:01.796Z,9.30
2022-11-23T10:08:46.067Z,9.03
2022-11-23T10:11:36.414Z,8.90
2022-11-23T10:14:24.839Z,9.80
2022-11-23T10:17:06.195Z,8.43
2022-11-23T10:19:58.591Z,8.37
2022-11-23T10:22:42.138Z,8.23
2022-11-23T10:25:18.872Z,8.67
2022-11-23T10:27:54.024Z,8.17
2022-11-23T10:30:22.874Z,8.17
2022-11-23T10:32:59.604Z,8.13
2022-11-23T10:35:33.393Z,8.30
2022-11-23T10:38:18.365Z,8.90
2022-11-23T10:41:00.933Z,8.97
2022-11-23T10:43:39.209Z,8.93
2022-11-23T10:46:31.041Z,8.93
2022-11-23T10:49:19.388Z,8.77
2022-11-23T10:51:59.965Z,8.63
2022-11-23T10:54:33.432Z,9.10
2022-11-23T10:57:05.234Z,9.57
2022-11-23T10:59:38.224Z,9.07
2022-11-23T11:02:20.317Z,9.43
2022-11-23T11:04:57.314Z,9.30
2022-11-23T11:07:30.836Z,8.83
2022-11-23T11:10:03.210Z,8.77
2022-11-23T11:12:36.063Z,8.83
2022-11-23T11:15:17.833Z,9.00
2022-11-23T11:17:56.998Z,9.20
2022-11-23T11:20:33.380Z,8.60
2022-11-23T11:23:12.908Z,8.03
2022-11-23T11:25:41.352Z,7.97
2022-11-23T11:28:25.999Z,7.70
2022-11-23T11:31:10.334Z,7.33
2022-11-23T11:33:47.788Z,7.27
2022-11-23T11:36:18.751Z,8.17
2022-11-23T11:39:17.223Z,7.33
2022-11-23T11:41:47.970Z,7.13
2022-11-23T11:44:22.839Z,7.97
2022-11-23T11:47:01.691Z,8.03
2022-11-23T11:49:36.278Z,8.10
2022-11-23T11:52:11.488Z,7.87
2022-11-23T11:54:51.893Z,8.63
2022-11-23T11:57:25.110Z,7.50
2022-11-23T11:59:58.643Z,8.13
2022-11-23T12:02:35.060Z,7.87
2022-11-23T12:05:17.506Z,7.83
2022-11-23T12:08:03.467Z,7.23
2022-11-23T12:10:41.764Z,7.77
2022-11-23T12:13:16.709Z,7.63
2022-11-23T12:15:50.341Z,6.80
2022-11-23T12:18:44.406Z,7.03
2022-11-23T12:21:34.920Z,6.57
2022-11-23T12:24:14.001Z,7.73
2022-11-23T12:26:56.401Z,7.07
2022-11-23T12:30:00.181Z,6.43
2022-11-23T12:32:45.302Z,6.37
2022-11-23T12:35:45.881Z,7.20
2022-11-23T12:38:31.326Z,7.10
2022-11-23T12:41:25.997Z,6.90
2022-11-23T12:44:50.210Z,7.20
2022-11-23T12:47:40.087Z,6.57
2022-11-23T12:50:26.221Z,7.27
2022-11-23T12:53:35.264Z,6.20
2022-11-23T12:56:16.863Z,6.67
2022-11-23T12:58:49.255Z,6.43
2022-11-23T13:01:29.340Z,6.03
2022-11-23T13:04:47.584Z,5.77
2022-11-23T13:07:49.999Z,5.97
2022-11-23T13:10:54.189Z,5.63
2022-11-23T13:13:50.018Z,6.30
2022-11-23T13:16:32.039Z,6.03
2022-11-23T13:19:33.592Z,5.87
2022-11-23T13:22:06.761Z,5.77
2022-11-23T13:24:58.971Z,5.27
2022-11-23T13:27:55.595Z,4.33
2022-11-23T13:30:51.837Z,4.87
2022-11-23T13:33:37.588Z,4.90
2022-11-23T13:36:15.272Z,5.07
2022-11-23T13:38:46.851Z,4.70
2022-11-23T13:42:00.522Z,4.30
2022-11-23T13:44:35.638Z,4.63
2022-11-23T13:47:19.095Z,4.27
2022-11-23T13:49:50.129Z,4.53
2022-11-23T13:52:32.442Z,4.40
2022-11-23T13:55:19.606Z,4.00
2022-11-23T13:58:38.583Z,3.90
2022-11-23T14:01:09.445Z,5.23
2022-11-23T14:03:55.822Z,4.70
2022-11-23T14:06:43.656Z,4.20
2022-11-23T14:09:22.693Z,4.20
2022-11-23T14:12:03.036Z,3.93
2022-11-23T14:14:46.212Z,4.37
2022-11-23T14:18:04.498Z,4.80
2022-11-23T14:20:56.534Z,4.63
2022-11-23T14:24:38.171Z,4.00
2022-11-23T14:27:46.815Z,4.70
2022-11-23T14:30:45.513Z,4.70
2022-11-23T14:33:33.479Z,4.10
2022-11-23T14:36:17.774Z,4.47
2022-11-23T14:39:42.201Z,4.83
2022-11-23T14:42:15.981Z,5.10
2022-11-23T14:44:45.811Z,5.40
2022-11-23T14:47:15.537Z,5.03
2022-11-23T14:49:52.377Z,4.50
2022-11-23T14:52:23.862Z,4.70
2022-11-23T14:54:54.810Z,4.97
2022-11-23T14:57:27.868Z,5.03
2022-11-23T15:00:00.515Z,4.50
2022-11-23T15:02:37.232Z,4.90
2022-11-23T15:05:20.820Z,5.80
2022-11-23T15:07:57.693Z,5.20
2022-11-23T15:10:40.277Z,6.03
2022-11-23T15:13:23.981Z,5.53
2022-11-23T15:15:55.169Z,5.90
2022-11-23T15:18:34.506Z,7.20
2022-11-23T15:21:15.273Z,6.00
2022-11-23T15:23:47.133Z,6.67
2022-11-23T15:26:42.003Z,6.97
2022-11-23T15:29:33.446Z,7.30
2022-11-23T15:34:53.923Z,6.80
2022-11-23T15:37:25.054Z,7.00
2022-11-23T15:39:56.299Z,7.43
2022-11-23T15:42:27.542Z,8.13
2022-11-23T15:44:56.719Z,7.50
2022-11-23T15:47:30.826Z,7.50
2022-11-23T15:50:03.322Z,7.53
2022-11-23T15:52:37.993Z,7.23
2022-11-23T15:55:13.727Z,6.80
2022-11-23T15:57:43.533Z,7.43
2022-11-23T16:00:25.498Z,7.20
2022-11-23T16:02:54.374Z,7.20
2022-11-23T16:05:25.409Z,6.40
2022-11-23T16:07:58.362Z,7.67
2022-11-23T16:10:28.904Z,8.03
2022-11-23T16:12:59.775Z,8.03
2022-11-23T16:15:44.000Z,8.27
2022-11-23T16:18:26.630Z,9.00
2022-11-23T16:20:59.840Z,9.73
2022-11-23T16:23:41.805Z,9.23
2022-11-23T16:26:10.736Z,10.50
2022-11-23T16:28:48.748Z,10.40
2022-11-23T16:31:30.223Z,9.90
2022-11-23T16:33:58.745Z,9.60
2022-11-23T16:36:29.133Z,10.90
2022-11-23T16:39:05.178Z,11.27
2022-11-23T16:41:34.136Z,10.03
2022-11-23T16:44:02.600Z,9.87
2022-11-23T16:46:32.951Z,9.63
2022-11-23T16:49:02.069Z,9.23
2022-11-23T16:51:30.448Z,9.00
2022-11-23T16:54:20.309Z,8.97
2022-11-23T16:56:48.837Z,8.50
2022-11-23T16:59:19.571Z,8.73
2022-11-23T17:01:56.588Z,8.03
2022-11-23T17:04:26.180Z,8.37
2022-11-23T17:06:54.648Z,8.17
2022-11-23T17:09:24.335Z,8.40
2022-11-23T17:11:52.660Z,8.57
2022-11-23T17:14:28.039Z,9.07
2022-11-23T17:17:01.739Z,8.93
2022-11-23T17:19:30.505Z,8.73
2022-11-23T17:21:59.212Z,8.77
2022-11-23T17:24:28.898Z,9.30
2022-11-23T17:26:57.428Z,8.80
2022-11-23T17:29:25.937Z,9.40
2022-11-23T17:31:54.192Z,9.57
2022-11-23T17:34:22.578Z,8.97
2022-11-23T17:36:53.229Z,9.23
2022-11-23T17:39:25.336Z,9.00
2022-11-23T17:42:01.595Z,8.83
2022-11-23T17:44:33.521Z,9.37
2022-11-23T17:47:02.132Z,9.63
2022-11-23T17:49:31.156Z,8.67
2022-11-23T17:51:59.931Z,9.03
2022-11-23T17:54:28.223Z,8.43
2022-11-23T17:56:58.681Z,9.27
2022-11-23T17:59:27.165Z,9.13
2022-11-23T18:01:55.587Z,9.33
2022-11-23T18:04:23.891Z,8.73
2022-11-23T18:06:52.116Z,10.07
2022-11-23T18:09:20.424Z,9.70
2022-11-23T18:11:48.837Z,9.00
2022-11-23T18:14:19.168Z,9.10
2022-11-23T18:16:47.606Z,9.50
2022-11-23T18:19:16.042Z,9.90
2022-11-23T18:21:44.551Z,9.97
2022-11-23T18:24:12.884Z,10.20
2022-11-23T18:26:41.663Z,9.60
2022-11-23T18:29:15.539Z,10.33
2022-11-23T18:31:46.646Z,10.03
2022-11-23T18:34:15.044Z,9.50
2022-11-23T18:36:43.503Z,11.00
2022-11-23T18:39:11.974Z,10.33
2022-11-23T18:41:40.367Z,10.27
2022-11-23T18:44:08.821Z,9.63
2022-11-23T18:46:37.161Z,10.30
2022-11-23T18:49:07.140Z,10.57
2022-11-23T18:51:35.691Z,11.67
2022-11-23T18:54:04.085Z,9.80
2022-11-23T18:56:32.640Z,9.87
2022-11-23T18:59:02.705Z,10.40
2022-11-23T19:01:31.074Z,9.83
2022-11-23T19:04:01.350Z,10.93
2022-11-23T19:06:31.093Z,10.23
2022-11-23T19:09:01.691Z,10.60
2022-11-23T19:11:30.347Z,10.63
2022-11-23T19:14:01.620Z,10.60
2022-11-23T19:16:32.662Z,10.07
2022-11-23T19:19:03.628Z,10.37
2022-11-23T19:21:36.129Z,10.80
2022-11-23T19:24:07.200Z,10.70
2022-11-23T19:26:35.819Z,10.50
2022-11-23T19:29:04.535Z,10.43
2022-11-23T19:31:33.725Z,10.47
2022-11-23T19:34:05.701Z,10.90
2022-11-23T19:36:37.090Z,9.90
2022-11-23T19:39:06.565Z,10.83
2022-11-23T19:41:34.833Z,11.03
2022-11-23T19:44:03.346Z,10.67
2022-11-23T19:46:32.845Z,10.60
2022-11-23T19:49:01.160Z,11.53
2022-11-23T19:51:29.790Z,11.20
2022-11-23T19:54:00.949Z,10.60
2022-11-23T19:56:30.717Z,10.90
2022-11-23T19:59:02.035Z,10.40
2022-11-23T20:01:32.787Z,10.87
2022-11-23T20:04:08.780Z,10.67
2022-11-23T20:06:42.102Z,10.70
2022-11-23T20:09:19.084Z,10.50
2022-11-23T20:11:50.990Z,10.50
2022-11-23T20:14:20.458Z,10.70
2022-11-23T20:16:49.009Z,11.10
2022-11-23T20:19:17.427Z,11.60
2022-11-23T20:21:45.883Z,10.70
2022-11-23T20:24:16.572Z,10.57
2022-11-23T20:26:45.042Z,12.07
2022-11-23T20:29:14.606Z,10.57
2022-11-23T20:31:43.080Z,10.50
2022-11-23T20:34:16.662Z,11.10
2022-11-23T20:36:48.291Z,11.00
2022-11-23T20:39:18.321Z,10.20
2022-11-23T20:41:49.354Z,9.97
2022-11-23T20:44:17.758Z,9.73
2022-11-23T20:47:01.049Z,10.23
2022-11-23T20:49:30.749Z,10.30
2022-11-23T20:51:59.417Z,10.90
2022-11-23T20:54:29.084Z,9.97
2022-11-23T20:56:59.902Z,10.43
2022-11-23T20:59:28.291Z,9.87
2022-11-23T21:01:56.699Z,10.37
2022-11-23T21:04:25.281Z,10.87
2022-11-23T21:06:54.516Z,11.03
2022-11-23T21:09:22.803Z,10.23
2022-11-23T21:12:10.409Z,10.00
2022-11-23T21:14:38.995Z,10.40
2022-11-23T21:17:07.840Z,9.90
2022-11-23T21:19:39.207Z,10.37
2022-11-23T21:22:11.222Z,10.40
2022-11-23T21:24:40.581Z,9.97
2022-11-23T21:27:14.772Z,10.70
2022-11-23T21:29:44.876Z,10.43
2022-11-23T21:32:14.649Z,10.63
2022-11-23T21:34:43.290Z,9.83
2022-11-23T21:37:12.436Z,9.60
2022-11-23T21:39:43.174Z,10.47
2022-11-23T21:42:14.128Z,9.80
2022-11-23T21:44:42.540Z,9.63
2022-11-23T21:47:10.853Z,9.37
2022-11-23T21:49:39.201Z,10.13
2022-11-23T21:52:08.925Z,9.60
2022-11-23T21:54:37.373Z,9.20
2022-11-23T21:57:05.850Z,10.27
2022-11-23T21:59:35.875Z,9.20
2022-11-23T22:02:04.449Z,9.00
2022-11-23T22:04:33.372Z,10.03
2022-11-23T22:07:03.216Z,8.43
2022-11-23T22:09:34.265Z,7.87
2022-11-23T22:12:03.170Z,8.73
2022-11-23T22:14:32.029Z,8.33
2022-11-23T22:17:02.234Z,8.47
2022-11-23T22:19:30.750Z,8.30
2022-11-23T22:21:59.298Z,8.13
2022-11-23T22:24:28.263Z,8.67
2022-11-23T22:26:56.807Z,8.60
2022-11-23T22:29:25.883Z,8.17
2022-11-23T22:31:54.514Z,8.77
2022-11-23T22:34:24.381Z,8.23
2022-11-23T22:36:55.359Z,8.27
2022-11-23T22:39:24.102Z,7.60
2022-11-23T22:41:52.548Z,7.73
2022-11-23T22:44:21.133Z,8.33
2022-11-23T22:46:50.146Z,7.20
2022-11-23T22:49:18.859Z,8.10
2022-11-23T22:51:48.906Z,7.63
2022-11-23T22:54:17.528Z,8.30
2022-11-23T22:56:46.078Z,7.47
2022-11-23T22:59:14.634Z,7.57
2022-11-23T23:01:43.134Z,7.30
2022-11-23T23:04:12.050Z,7.20
2022-11-23T23:06:40.610Z,7.60
2022-11-23T23:09:12.096Z,7.13
2022-11-23T23:11:40.743Z,7.33
2022-11-23T23:14:09.799Z,7.30
2022-11-23T23:16:38.586Z,7.70
2022-11-23T23:19:07.412Z,7.33
2022-11-23T23:21:38.244Z,7.47
2022-11-23T23:24:07.555Z,7.00
2022-11-23T23:26:37.513Z,7.67
2022-11-23T23:29:06.050Z,7.03
2022-11-23T23:31:37.614Z,6.90
2022-11-23T23:34:07.135Z,7.00
2022-11-23T23:36:37.552Z,7.23
2022-11-23T23:39:06.579Z,6.40
2022-11-23T23:41:36.578Z,6.80
2022-11-23T23:44:05.410Z,6.47
2022-11-23T23:46:33.894Z,5.90
2022-11-23T23:49:02.666Z,6.40
2022-11-23T23:51:31.170Z,6.67
2022-11-23T23:53:59.845Z,6.60
2022-11-23T23:56:33.039Z,6.30
2022-11-23T23:59:03.001Z,6.67
